Time;durP1;ratioP1;P1;durP2;ratioP2;P2;SDS_P1;SDS_P2;PMS_P1;PMS_P2;Temp;Humidity;BMP_temperature;BMP_pressure;BME280_temperature;BME280_humidity;BME280_pressure;Samples;Min_cycle;Max_cycle;Signal;HPM_P1;HPM_P2
2021/08/09 00:01:56;;;;;;;4.15;2.47;;;;;;;;;;5013193;28;20027;-76
2021/08/09 00:04:22;;;;;;;4.25;2.10;;;;;;;;;;4996765;28;20037;-74
2021/08/09 00:06:48;;;;;;;8.57;2.80;;;;;;;;;;5012301;28;20072;-74
2021/08/09 00:09:14;;;;;;;4.53;2.33;;;;;;;;;;5016226;28;20123;-76
2021/08/09 00:11:40;;;;;;;5.15;2.47;;;;;;;;;;5018891;28;20099;-77
2021/08/09 00:14:06;;;;;;;4.90;2.38;;;;;;;;;;5018971;28;20387;-77
2021/08/09 00:16:32;;;;;;;3.92;2.90;;;;;;;;;;5019266;28;20036;-76
2021/08/09 00:18:59;;;;;;;4.13;2.40;;;;;;;;;;5019285;28;20512;-76
2021/08/09 00:21:25;;;;;;;8.82;2.70;;;;;;;;;;5019800;28;20030;-74
2021/08/09 00:23:51;;;;;;;4.57;2.63;;;;;;;;;;5015347;28;20041;-75
2021/08/09 00:26:19;;;;;;;3.92;2.33;;;;;;;;;;5019998;28;20480;-74
2021/08/09 00:28:45;;;;;;;4.05;2.50;;;;;;;;;;4999585;28;20030;-73
2021/08/09 00:31:11;;;;;;;3.75;2.42;;;;;;;;;;5016317;28;20030;-75
2021/08/09 00:33:37;;;;;;;4.88;2.42;;;;;;;;;;5022181;28;20125;-76
2021/08/09 00:36:04;;;;;;;2.95;2.22;;;;;;;;;;5018449;28;20034;-73
2021/08/09 00:38:30;;;;;;;5.30;2.40;;;;;;;;;;5001306;28;20557;-77
2021/08/09 00:40:56;;;;;;;2.33;2.03;;;;;;;;;;5016277;28;20056;-76
2021/08/09 00:43:24;;;;;;;5.50;2.47;;;;;;;;;;5016803;28;20373;-75
2021/08/09 00:45:50;;;;;;;4.50;2.28;;;;;;;;;;5014819;28;20022;-75
2021/08/09 00:48:16;;;;;;;3.65;2.42;;;;;;;;;;5019073;28;20361;-74
2021/08/09 00:50:42;;;;;;;4.35;2.28;;;;;;;;;;5018610;28;20080;-73
2021/08/09 00:53:08;;;;;;;4.25;2.33;;;;;;;;;;5015823;28;20092;-77
2021/08/09 00:55:36;;;;;;;5.20;2.53;;;;;;;;;;5018493;28;20026;-75
2021/08/09 00:58:02;;;;;;;5.53;2.92;;;;;;;;;;5014500;28;20029;-74
2021/08/09 01:00:31;;;;;;;7.65;2.63;;;;;;;;;;5021042;28;20110;-73
2021/08/09 01:02:57;;;;;;;3.45;2.42;;;;;;;;;;5006355;28;20052;-75
2021/08/09 01:05:23;;;;;;;7.60;2.60;;;;;;;;;;4999561;28;20034;-74
2021/08/09 01:08:06;;;;;;;4.53;2.28;;;;;;;;;;5002039;28;20018;-75
2021/08/09 01:11:08;;;;;;;7.18;4.25;;;;;;;;;;5017818;28;20030;-76
2021/08/09 01:13:45;;;;;;;3.72;2.30;;;;;;;;;;4955112;29;20106;-75
2021/08/09 01:16:13;;;;;;;4.85;2.72;;;;;;;;;;4992087;28;20025;-78
2021/08/09 01:18:42;;;;;;;7.88;2.70;;;;;;;;;;5006773;28;20061;-75
2021/08/09 01:21:10;;;;;;;2.80;2.40;;;;;;;;;;5011712;28;20034;-77
2021/08/09 01:23:42;;;;;;;6.00;3.55;;;;;;;;;;5007173;28;20029;-76
2021/08/09 01:26:15;;;;;;;5.07;2.53;;;;;;;;;;5017616;28;20477;-74
2021/08/09 01:28:42;;;;;;;4.78;2.47;;;;;;;;;;5013094;28;20481;-77
2021/08/09 01:31:08;;;;;;;5.22;2.40;;;;;;;;;;5003772;28;20038;-75
2021/08/09 01:33:34;;;;;;;6.97;2.67;;;;;;;;;;5016904;28;20049;-76
2021/08/09 01:36:01;;;;;;;7.93;2.72;;;;;;;;;;5016223;28;20021;-74
2021/08/09 01:38:27;;;;;;;3.42;2.67;;;;;;;;;;5010812;28;20026;-73
2021/08/09 01:40:58;;;;;;;6.75;3.10;;;;;;;;;;5006348;28;20021;-74
2021/08/09 01:43:25;;;;;;;4.40;2.60;;;;;;;;;;5016137;28;20484;-76
2021/08/09 01:45:55;;;;;;;8.90;2.50;;;;;;;;;;5016423;28;20026;-75
2021/08/09 01:48:21;;;;;;;3.60;2.30;;;;;;;;;;5016384;28;20026;-74
2021/08/09 01:50:48;;;;;;;4.05;2.50;;;;;;;;;;5017219;28;20388;-76
2021/08/09 01:53:15;;;;;;;4.57;3.00;;;;;;;;;;5017438;28;20021;-75
2021/08/09 01:55:41;;;;;;;5.85;2.95;;;;;;;;;;5017317;28;20072;-76
2021/08/09 01:58:08;;;;;;;7.82;2.88;;;;;;;;;;5016225;28;20428;-76
2021/08/09 02:00:34;;;;;;;5.90;2.30;;;;;;;;;;5015463;28;20030;-76
2021/08/09 02:03:00;;;;;;;5.22;2.33;;;;;;;;;;5015517;28;20034;-76
2021/08/09 02:05:26;;;;;;;5.13;2.47;;;;;;;;;;5016028;28;20033;-76
2021/08/09 02:07:54;;;;;;;5.90;2.45;;;;;;;;;;4996699;28;20036;-75
2021/08/09 02:10:24;;;;;;;5.13;2.80;;;;;;;;;;5012870;28;20026;-76
2021/08/09 02:12:50;;;;;;;4.18;3.03;;;;;;;;;;5011902;28;20022;-75
2021/08/09 02:15:18;;;;;;;6.38;2.33;;;;;;;;;;5015646;28;20018;-76
2021/08/09 02:17:49;;;;;;;6.70;2.83;;;;;;;;;;5010758;28;20113;-75
2021/08/09 02:20:28;;;;;;;3.05;2.38;;;;;;;;;;5013024;28;20026;-73
2021/08/09 02:22:55;;;;;;;5.25;2.20;;;;;;;;;;5002952;28;20049;-75
2021/08/09 02:25:24;;;;;;;3.30;2.20;;;;;;;;;;5015651;28;20543;-74
2021/08/09 02:27:54;;;;;;;4.70;2.40;;;;;;;;;;5016097;28;20036;-76
2021/08/09 02:30:22;;;;;;;4.22;2.50;;;;;;;;;;5015492;28;20435;-73
2021/08/09 02:32:48;;;;;;;4.00;2.35;;;;;;;;;;5003474;28;20145;-75
2021/08/09 02:35:17;;;;;;;6.30;2.72;;;;;;;;;;5016524;28;20026;-74
2021/08/09 02:37:43;;;;;;;4.35;2.30;;;;;;;;;;5013914;28;20022;-76
2021/08/09 02:40:10;;;;;;;3.90;2.42;;;;;;;;;;4995881;28;20026;-73
2021/08/09 02:42:36;;;;;;;3.15;2.40;;;;;;;;;;5015433;28;20029;-75
2021/08/09 02:45:03;;;;;;;3.33;2.53;;;;;;;;;;5016558;28;20030;-73
2021/08/09 02:47:33;;;;;;;5.10;2.70;;;;;;;;;;5015904;28;20022;-74
2021/08/09 02:49:59;;;;;;;3.65;3.17;;;;;;;;;;4988065;28;20380;-77
2021/08/09 02:52:26;;;;;;;2.47;2.10;;;;;;;;;;5015622;28;20033;-75
2021/08/09 02:54:52;;;;;;;8.73;2.78;;;;;;;;;;5014550;28;20029;-74
2021/08/09 02:57:19;;;;;;;5.13;2.30;;;;;;;;;;5015485;28;20425;-75
2021/08/09 02:59:45;;;;;;;5.43;2.28;;;;;;;;;;5015198;28;20053;-74
2021/08/09 03:02:12;;;;;;;3.45;2.10;;;;;;;;;;5008365;28;20105;-74
2021/08/09 03:04:40;;;;;;;4.43;2.42;;;;;;;;;;5008590;28;20034;-76
2021/08/09 03:07:06;;;;;;;3.58;2.40;;;;;;;;;;5015455;28;20034;-75
2021/08/09 03:09:35;;;;;;;3.08;2.22;;;;;;;;;;5012095;28;20029;-74
2021/08/09 03:12:02;;;;;;;2.80;2.30;;;;;;;;;;5011767;28;20025;-77
2021/08/09 03:14:31;;;;;;;3.40;2.00;;;;;;;;;;5011669;28;20026;-76
2021/08/09 03:16:57;;;;;;;5.00;2.63;;;;;;;;;;4997152;28;20489;-76
2021/08/09 03:19:23;;;;;;;5.00;2.60;;;;;;;;;;5012885;28;20030;-77
2021/08/09 03:21:52;;;;;;;7.25;2.47;;;;;;;;;;5004862;28;20022;-76
2021/08/09 03:24:19;;;;;;;3.72;2.22;;;;;;;;;;5012223;28;20022;-76
2021/08/09 03:26:45;;;;;;;2.60;2.15;;;;;;;;;;4996816;28;20027;-77
2021/08/09 03:29:11;;;;;;;5.07;2.35;;;;;;;;;;4990095;28;20057;-74
2021/08/09 03:31:37;;;;;;;3.75;2.40;;;;;;;;;;5009895;28;20023;-75
2021/08/09 03:34:03;;;;;;;2.63;2.10;;;;;;;;;;5000364;28;20789;-74
2021/08/09 03:36:29;;;;;;;7.13;2.83;;;;;;;;;;4996247;28;20023;-75
2021/08/09 03:38:55;;;;;;;6.25;2.60;;;;;;;;;;5015945;28;20456;-73
2021/08/09 03:41:21;;;;;;;7.00;2.67;;;;;;;;;;5023527;28;20022;-71
2021/08/09 03:43:47;;;;;;;3.85;2.10;;;;;;;;;;5022450;28;20034;-73
2021/08/09 03:46:14;;;;;;;3.92;2.17;;;;;;;;;;5027282;28;20087;-72
2021/08/09 03:48:40;;;;;;;3.97;2.80;;;;;;;;;;5000645;28;20033;-72
2021/08/09 03:51:07;;;;;;;3.75;2.40;;;;;;;;;;5022490;28;20037;-71
2021/08/09 03:53:33;;;;;;;2.70;1.98;;;;;;;;;;5025090;28;20053;-73
2021/08/09 03:55:59;;;;;;;4.00;2.63;;;;;;;;;;5005793;28;20033;-75
2021/08/09 03:58:25;;;;;;;3.78;2.45;;;;;;;;;;5017668;28;20057;-76
2021/08/09 04:00:51;;;;;;;4.60;2.30;;;;;;;;;;5016771;28;20026;-75
2021/08/09 04:03:17;;;;;;;4.18;2.00;;;;;;;;;;5021994;28;20366;-73
2021/08/09 04:05:44;;;;;;;3.95;2.72;;;;;;;;;;5021572;28;20025;-73
2021/08/09 04:08:10;;;;;;;2.17;1.88;;;;;;;;;;5018504;28;20026;-74
2021/08/09 04:10:36;;;;;;;2.83;2.30;;;;;;;;;;5012723;28;20068;-75
2021/08/09 04:13:02;;;;;;;3.47;2.28;;;;;;;;;;5001677;28;20396;-75
2021/08/09 04:15:28;;;;;;;3.70;2.00;;;;;;;;;;5019802;28;20022;-76
2021/08/09 04:17:54;;;;;;;5.32;2.13;;;;;;;;;;5000064;28;20114;-74
2021/08/09 04:20:20;;;;;;;4.28;2.08;;;;;;;;;;5007375;28;20046;-75
2021/08/09 04:22:46;;;;;;;2.45;2.15;;;;;;;;;;4999714;28;20034;-74
2021/08/09 04:25:12;;;;;;;5.60;2.30;;;;;;;;;;5019511;28;20038;-73
2021/08/09 04:27:38;;;;;;;4.45;2.40;;;;;;;;;;5017570;28;20021;-75
2021/08/09 04:30:05;;;;;;;2.97;2.20;;;;;;;;;;5018331;28;20106;-74
2021/08/09 04:32:41;;;;;;;4.80;2.38;;;;;;;;;;5009509;28;20086;-75
2021/08/09 04:35:07;;;;;;;4.60;2.75;;;;;;;;;;5018179;28;20045;-74
2021/08/09 04:37:33;;;;;;;4.80;2.25;;;;;;;;;;5013948;28;20033;-73
2021/08/09 04:40:00;;;;;;;5.38;2.70;;;;;;;;;;5015222;28;20545;-75
2021/08/09 04:42:26;;;;;;;3.90;2.20;;;;;;;;;;5018003;28;20053;-76
2021/08/09 04:44:52;;;;;;;3.35;2.40;;;;;;;;;;5012236;28;20515;-76
2021/08/09 04:47:18;;;;;;;4.45;2.70;;;;;;;;;;5011625;28;20461;-73
2021/08/09 04:49:44;;;;;;;4.20;2.28;;;;;;;;;;5005080;28;20109;-73
2021/08/09 04:52:10;;;;;;;6.22;2.47;;;;;;;;;;5016658;28;20022;-77
2021/08/09 04:54:36;;;;;;;3.45;2.30;;;;;;;;;;5013067;28;20458;-75
2021/08/09 04:57:03;;;;;;;12.68;2.80;;;;;;;;;;5012771;28;20082;-76
2021/08/09 04:59:29;;;;;;;3.38;2.13;;;;;;;;;;5007932;28;20030;-74
2021/08/09 05:01:55;;;;;;;5.40;2.30;;;;;;;;;;5018875;28;20017;-73
2021/08/09 05:04:21;;;;;;;4.93;2.60;;;;;;;;;;5018367;28;20076;-76
2021/08/09 05:06:49;;;;;;;3.03;2.10;;;;;;;;;;5000996;28;20423;-76
2021/08/09 05:09:15;;;;;;;3.92;2.25;;;;;;;;;;5017509;28;20046;-76
2021/08/09 05:11:41;;;;;;;4.30;2.65;;;;;;;;;;5017912;28;20041;-76
2021/08/09 05:14:07;;;;;;;4.35;2.67;;;;;;;;;;5002402;28;20025;-75
2021/08/09 05:16:35;;;;;;;4.20;2.38;;;;;;;;;;5017057;28;20021;-75
2021/08/09 05:19:03;;;;;;;6.32;2.35;;;;;;;;;;4996802;28;20049;-74
2021/08/09 05:21:33;;;;;;;2.78;2.28;;;;;;;;;;5009835;28;20041;-75
2021/08/09 05:23:59;;;;;;;2.63;2.08;;;;;;;;;;5017340;28;20129;-77
2021/08/09 05:26:26;;;;;;;5.53;2.50;;;;;;;;;;5017005;28;20484;-76
2021/08/09 05:28:52;;;;;;;4.57;2.50;;;;;;;;;;5014541;28;20030;-75
2021/08/09 05:31:18;;;;;;;4.18;2.30;;;;;;;;;;4999753;28;20118;-74
2021/08/09 05:33:44;;;;;;;4.57;2.80;;;;;;;;;;5010555;28;20049;-75
2021/08/09 05:36:11;;;;;;;5.35;2.97;;;;;;;;;;5016888;28;20029;-73
2021/08/09 05:38:40;;;;;;;3.33;2.72;;;;;;;;;;4990430;28;20040;-74
2021/08/09 05:41:06;;;;;;;6.43;2.80;;;;;;;;;;5002407;28;20033;-73
2021/08/09 05:43:32;;;;;;;7.30;2.47;;;;;;;;;;5019699;28;20048;-74
2021/08/09 05:45:58;;;;;;;4.30;2.60;;;;;;;;;;5014591;28;20036;-73
2021/08/09 05:48:24;;;;;;;3.35;2.50;;;;;;;;;;5005562;28;20025;-75
2021/08/09 05:50:51;;;;;;;2.67;2.10;;;;;;;;;;5007792;28;20030;-73
2021/08/09 05:53:17;;;;;;;4.90;2.33;;;;;;;;;;5011301;28;20053;-74
2021/08/09 05:55:43;;;;;;;4.75;2.60;;;;;;;;;;5012324;28;20033;-76
2021/08/09 05:58:09;;;;;;;4.00;2.70;;;;;;;;;;5020711;28;20021;-74
2021/08/09 06:00:35;;;;;;;3.75;2.33;;;;;;;;;;5004926;28;20054;-72
2021/08/09 06:03:01;;;;;;;4.13;2.78;;;;;;;;;;5011920;28;20053;-76
2021/08/09 06:05:28;;;;;;;4.53;3.00;;;;;;;;;;5019469;28;20033;-76
2021/08/09 06:07:54;;;;;;;6.32;2.75;;;;;;;;;;5018607;28;20489;-74
2021/08/09 06:10:22;;;;;;;4.97;2.38;;;;;;;;;;5016860;28;20037;-72
2021/08/09 06:12:48;;;;;;;4.95;2.70;;;;;;;;;;5015886;28;20053;-74
2021/08/09 06:15:14;;;;;;;3.38;2.33;;;;;;;;;;5018247;28;20026;-73
2021/08/09 06:17:40;;;;;;;3.88;2.22;;;;;;;;;;5012519;28;20465;-77
2021/08/09 06:20:07;;;;;;;7.38;2.80;;;;;;;;;;5016470;28;20045;-77
2021/08/09 06:22:33;;;;;;;4.30;2.47;;;;;;;;;;5001786;28;20057;-77
2021/08/09 06:24:59;;;;;;;3.20;2.60;;;;;;;;;;4997757;28;20030;-77
2021/08/09 06:27:25;;;;;;;4.82;2.55;;;;;;;;;;4996674;28;20114;-79
2021/08/09 06:29:51;;;;;;;6.97;2.70;;;;;;;;;;4996644;28;20044;-76
2021/08/09 06:32:17;;;;;;;4.57;2.63;;;;;;;;;;4997511;28;20072;-77
2021/08/09 06:34:43;;;;;;;3.45;2.72;;;;;;;;;;4997203;28;20097;-74
2021/08/09 06:37:09;;;;;;;2.90;2.53;;;;;;;;;;5002939;28;20026;-76
2021/08/09 06:39:35;;;;;;;4.95;2.72;;;;;;;;;;5016661;28;20068;-74
2021/08/09 06:42:04;;;;;;;4.20;2.72;;;;;;;;;;5022942;28;20037;-74
2021/08/09 06:44:33;;;;;;;5.35;2.72;;;;;;;;;;5016167;28;20037;-77
2021/08/09 06:47:00;;;;;;;4.18;2.95;;;;;;;;;;5021581;28;20034;-78
2021/08/09 06:49:27;;;;;;;3.47;2.45;;;;;;;;;;4991807;28;20038;-76
2021/08/09 06:51:53;;;;;;;5.80;2.70;;;;;;;;;;5007732;28;20412;-78
2021/08/09 06:54:21;;;;;;;5.22;2.60;;;;;;;;;;5018369;28;20084;-74
2021/08/09 06:56:47;;;;;;;6.50;3.33;;;;;;;;;;5011784;28;20026;-72
2021/08/09 06:59:14;;;;;;;8.50;2.85;;;;;;;;;;5016498;28;20025;-68
2021/08/09 07:01:40;;;;;;;5.03;3.15;;;;;;;;;;5006660;28;20026;-69
2021/08/09 07:04:06;;;;;;;3.97;2.90;;;;;;;;;;5015329;28;20037;-73
2021/08/09 07:06:32;;;;;;;4.18;2.88;;;;;;;;;;5013392;28;20484;-71
2021/08/09 07:09:00;;;;;;;8.55;2.90;;;;;;;;;;5013510;28;20034;-72
2021/08/09 07:11:26;;;;;;;4.22;3.22;;;;;;;;;;5008170;28;20484;-72
2021/08/09 07:13:53;;;;;;;4.82;3.15;;;;;;;;;;4997071;28;20033;-71
2021/08/09 07:16:25;;;;;;;7.45;3.38;;;;;;;;;;5009174;28;20531;-72
2021/08/09 07:18:52;;;;;;;6.10;3.13;;;;;;;;;;5016479;28;20030;-74
2021/08/09 07:21:18;;;;;;;13.02;3.92;;;;;;;;;;5008191;28;20105;-71
2021/08/09 07:23:44;;;;;;;8.57;3.20;;;;;;;;;;5001272;28;20038;-70
2021/08/09 07:26:10;;;;;;;6.35;3.08;;;;;;;;;;5027379;28;20029;-68
2021/08/09 07:28:36;;;;;;;4.97;3.28;;;;;;;;;;5018909;28;20037;-72
2021/08/09 07:31:03;;;;;;;4.40;3.45;;;;;;;;;;5015775;28;20472;-73
2021/08/09 07:33:29;;;;;;;6.07;3.30;;;;;;;;;;5016624;28;20058;-73
2021/08/09 07:35:55;;;;;;;10.15;3.70;;;;;;;;;;5020677;28;20492;-69
2021/08/09 07:38:22;;;;;;;6.00;3.50;;;;;;;;;;5024174;28;20038;-72
2021/08/09 07:40:48;;;;;;;5.95;3.13;;;;;;;;;;5018314;28;20472;-72
2021/08/09 07:43:14;;;;;;;4.38;3.50;;;;;;;;;;5021609;28;20040;-71
2021/08/09 07:45:40;;;;;;;8.88;3.47;;;;;;;;;;5016182;28;20396;-73
2021/08/09 07:48:06;;;;;;;6.00;3.10;;;;;;;;;;5020762;28;20137;-66
2021/08/09 07:50:32;;;;;;;7.53;3.60;;;;;;;;;;5023141;28;20078;-72
2021/08/09 07:52:58;;;;;;;5.45;3.20;;;;;;;;;;5025603;28;20495;-74
2021/08/09 07:55:25;;;;;;;6.72;3.92;;;;;;;;;;5026912;28;20056;-68
2021/08/09 07:57:52;;;;;;;7.43;3.65;;;;;;;;;;5027597;28;20022;-71
2021/08/09 08:00:18;;;;;;;6.93;3.47;;;;;;;;;;5028955;28;20090;-66
2021/08/09 08:02:44;;;;;;;5.47;3.80;;;;;;;;;;5020964;28;20118;-68
2021/08/09 08:05:11;;;;;;;5.72;3.58;;;;;;;;;;5021235;28;20033;-73
2021/08/09 08:07:37;;;;;;;5.05;4.45;;;;;;;;;;5020242;28;20043;-70
2021/08/09 08:10:03;;;;;;;4.03;3.63;;;;;;;;;;5023263;28;20145;-65
2021/08/09 08:12:30;;;;;;;7.00;3.67;;;;;;;;;;5025738;28;20025;-66
2021/08/09 08:14:56;;;;;;;6.47;3.72;;;;;;;;;;5025632;28;20053;-70
2021/08/09 08:17:23;;;;;;;4.75;3.30;;;;;;;;;;5023217;28;20014;-68
2021/08/09 08:19:50;;;;;;;5.10;3.42;;;;;;;;;;5021791;28;20026;-73
2021/08/09 08:22:16;;;;;;;7.05;3.33;;;;;;;;;;5020612;28;20038;-68
2021/08/09 08:24:42;;;;;;;6.30;2.92;;;;;;;;;;5026059;28;20074;-69
2021/08/09 08:27:08;;;;;;;4.25;3.20;;;;;;;;;;5025082;28;20057;-68
2021/08/09 08:29:34;;;;;;;4.00;3.10;;;;;;;;;;5020339;28;20038;-71
2021/08/09 08:32:00;;;;;;;4.53;3.08;;;;;;;;;;5019403;28;20061;-66
2021/08/09 08:34:26;;;;;;;3.80;3.00;;;;;;;;;;5026662;28;20531;-67
2021/08/09 08:36:52;;;;;;;4.05;3.30;;;;;;;;;;5023130;28;20087;-69
2021/08/09 08:39:18;;;;;;;3.53;3.22;;;;;;;;;;5021884;28;20022;-69
2021/08/09 08:44:32;;;;;;;5.78;3.05;;;;;;;;;;5024662;28;20057;-65
2021/08/09 08:46:58;;;;;;;3.58;2.70;;;;;;;;;;5024377;28;20076;-66
2021/08/09 08:49:24;;;;;;;3.60;3.10;;;;;;;;;;5019560;28;20033;-74
2021/08/09 08:51:51;;;;;;;7.63;2.85;;;;;;;;;;5010085;28;20041;-74
2021/08/09 08:54:17;;;;;;;4.32;3.13;;;;;;;;;;5017125;28;20022;-71
2021/08/09 08:56:44;;;;;;;3.60;2.53;;;;;;;;;;5020055;28;20022;-67
2021/08/09 08:59:15;;;;;;;6.13;3.47;;;;;;;;;;5025815;28;20018;-73
2021/08/09 09:01:42;;;;;;;5.97;4.38;;;;;;;;;;5019641;28;20025;-72
2021/08/09 09:04:28;;;;;;;5.63;3.10;;;;;;;;;;5013865;28;20702;-71
2021/08/09 09:07:00;;;;;;;3.85;3.03;;;;;;;;;;5013334;28;20062;-71
2021/08/09 09:09:26;;;;;;;5.13;3.28;;;;;;;;;;5014216;28;20164;-73
2021/08/09 09:11:52;;;;;;;4.30;3.15;;;;;;;;;;5012645;28;20052;-74
2021/08/09 09:14:27;;;;;;;4.93;3.47;;;;;;;;;;5011228;28;20029;-69
2021/08/09 09:16:53;;;;;;;3.95;2.88;;;;;;;;;;5019450;28;20032;-69
2021/08/09 09:19:29;;;;;;;3.97;2.97;;;;;;;;;;5003656;28;20030;-70
2021/08/09 09:21:56;;;;;;;3.60;3.10;;;;;;;;;;5000762;28;20105;-71
2021/08/09 09:24:22;;;;;;;3.47;2.67;;;;;;;;;;5000111;28;20479;-71
2021/08/09 09:26:55;;;;;;;4.15;2.72;;;;;;;;;;5013998;28;20057;-67
2021/08/09 09:29:21;;;;;;;3.72;2.58;;;;;;;;;;5023706;28;20032;-71
2021/08/09 09:31:49;;;;;;;6.15;2.80;;;;;;;;;;5024021;28;20022;-66
2021/08/09 09:34:17;;;;;;;4.32;3.05;;;;;;;;;;5011288;28;20451;-69
2021/08/09 09:37:03;;;;;;;4.32;3.25;;;;;;;;;;5013736;28;20452;-69
2021/08/09 09:39:31;;;;;;;4.75;3.28;;;;;;;;;;5025447;28;20040;-70
2021/08/09 09:41:58;;;;;;;4.00;2.88;;;;;;;;;;5024622;28;20026;-67
2021/08/09 09:44:25;;;;;;;7.35;3.10;;;;;;;;;;5025278;28;20022;-64
2021/08/09 09:46:51;;;;;;;5.15;2.78;;;;;;;;;;5002084;28;20555;-69
2021/08/09 09:49:43;;;;;;;4.38;3.10;;;;;;;;;;5018946;28;20384;-71
2021/08/09 09:52:10;;;;;;;5.60;3.03;;;;;;;;;;5007660;28;20045;-72
2021/08/09 09:54:36;;;;;;;4.25;3.03;;;;;;;;;;5012050;28;20026;-71
2021/08/09 09:57:02;;;;;;;4.88;3.10;;;;;;;;;;5012693;28;20442;-72
2021/08/09 09:59:29;;;;;;;4.20;3.05;;;;;;;;;;5009467;28;20022;-71
2021/08/09 10:01:55;;;;;;;6.35;3.15;;;;;;;;;;5012021;28;20049;-74
2021/08/09 10:04:21;;;;;;;5.65;3.13;;;;;;;;;;5008572;28;20456;-72
2021/08/09 10:06:47;;;;;;;4.43;2.92;;;;;;;;;;5013179;28;20022;-72
2021/08/09 10:09:14;;;;;;;11.80;4.03;;;;;;;;;;5018442;28;20028;-66
2021/08/09 10:11:44;;;;;;;5.07;3.08;;;;;;;;;;5016882;28;20136;-69
2021/08/09 10:14:11;;;;;;;5.28;2.60;;;;;;;;;;5019005;28;20026;-75
2021/08/09 10:16:37;;;;;;;4.88;2.85;;;;;;;;;;5012329;28;20026;-74
2021/08/09 10:19:04;;;;;;;4.20;2.97;;;;;;;;;;5011441;28;20045;-73
2021/08/09 10:21:31;;;;;;;3.78;2.80;;;;;;;;;;5015647;28;20564;-70
2021/08/09 10:23:57;;;;;;;5.13;3.00;;;;;;;;;;5015385;28;20026;-71
2021/08/09 10:26:32;;;;;;;4.47;2.60;;;;;;;;;;5017179;28;20116;-69
2021/08/09 10:29:08;;;;;;;4.35;3.47;;;;;;;;;;5020289;28;20053;-71
2021/08/09 10:31:40;;;;;;;3.85;2.95;;;;;;;;;;5010822;28;20030;-70
2021/08/09 10:34:24;;;;;;;4.32;3.35;;;;;;;;;;4998607;28;20054;-72
2021/08/09 10:37:10;;;;;;;3.70;2.50;;;;;;;;;;5009864;28;20026;-68
2021/08/09 10:39:49;;;;;;;4.88;3.00;;;;;;;;;;4995766;28;20281;-73
2021/08/09 10:42:28;;;;;;;3.50;2.83;;;;;;;;;;5003574;28;20030;-69
2021/08/09 10:44:54;;;;;;;4.15;3.00;;;;;;;;;;5014359;28;20053;-71
2021/08/09 10:47:39;;;;;;;3.30;2.90;;;;;;;;;;4977142;28;20026;-71
2021/08/09 10:50:05;;;;;;;5.05;2.75;;;;;;;;;;5004184;28;20034;-68
2021/08/09 10:52:36;;;;;;;3.55;2.90;;;;;;;;;;5005371;28;20543;-74
2021/08/09 10:55:25;;;;;;;8.25;3.13;;;;;;;;;;5009313;28;20034;-72
2021/08/09 10:57:51;;;;;;;4.53;3.47;;;;;;;;;;4991260;28;20406;-72
2021/08/09 11:00:37;;;;;;;3.90;2.63;;;;;;;;;;5004729;28;20113;-72
2021/08/09 11:03:07;;;;;;;5.22;3.13;;;;;;;;;;5002040;28;20039;-72
2021/08/09 11:05:33;;;;;;;5.85;3.00;;;;;;;;;;5017279;28;20084;-66
2021/08/09 11:08:20;;;;;;;6.53;3.10;;;;;;;;;;5009342;28;20034;-70
2021/08/09 11:10:56;;;;;;;3.70;2.80;;;;;;;;;;5000746;28;20042;-74
2021/08/09 11:13:22;;;;;;;;;;;;;;;;;;5004404;28;20022;-72
2021/08/09 11:15:57;;;;;;;4.72;2.80;;;;;;;;;;5010152;28;19955;-72
2021/08/09 11:18:23;;;;;;;5.47;2.72;;;;;;;;;;5003219;28;20026;-71
2021/08/09 11:21:00;;;;;;;6.68;4.05;;;;;;;;;;5019121;28;20052;-66
2021/08/09 11:23:27;;;;;;;4.75;2.95;;;;;;;;;;5021921;28;20038;-67
2021/08/09 11:25:53;;;;;;;5.32;3.20;;;;;;;;;;5023241;28;20535;-66
2021/08/09 11:28:24;;;;;;;3.53;2.80;;;;;;;;;;5010906;28;20038;-66
2021/08/09 11:30:54;;;;;;;5.25;3.00;;;;;;;;;;5009345;28;20033;-72
2021/08/09 11:33:30;;;;;;;3.28;2.80;;;;;;;;;;5025125;28;20048;-66
2021/08/09 11:36:01;;;;;;;4.78;2.63;;;;;;;;;;5005630;28;20040;-76
2021/08/09 11:38:28;;;;;;;3.42;2.80;;;;;;;;;;5015738;28;20558;-65
2021/08/09 11:40:55;;;;;;;3.90;2.70;;;;;;;;;;5020043;28;20537;-71
2021/08/09 11:43:28;;;;;;;7.95;3.17;;;;;;;;;;5010801;28;20073;-74
2021/08/09 11:45:55;;;;;;;7.88;3.28;;;;;;;;;;5013765;28;20113;-73
2021/08/09 11:48:26;;;;;;;3.00;2.70;;;;;;;;;;5013985;28;20037;-67
2021/08/09 11:50:59;;;;;;;3.65;2.80;;;;;;;;;;5025106;28;20113;-66
2021/08/09 11:53:26;;;;;;;3.58;3.13;;;;;;;;;;5021848;28;20045;-71
2021/08/09 11:56:03;;;;;;;6.78;3.13;;;;;;;;;;5019323;28;20035;-69
2021/08/09 11:58:30;;;;;;;6.38;3.55;;;;;;;;;;5012683;28;20525;-71
2021/08/09 12:00:56;;;;;;;12.95;3.20;;;;;;;;;;5011331;28;20477;-74
2021/08/09 12:03:26;;;;;;;5.13;2.40;;;;;;;;;;4999791;28;20040;-75
2021/08/09 12:05:52;;;;;;;4.88;2.35;;;;;;;;;;5009952;28;20528;-74
2021/08/09 12:08:19;;;;;;;3.83;2.13;;;;;;;;;;5014215;28;20044;-72
2021/08/09 12:10:46;;;;;;;2.92;2.28;;;;;;;;;;5001371;28;20084;-72
2021/08/09 12:13:31;;;;;;;3.38;2.42;;;;;;;;;;5005055;28;20030;-74
2021/08/09 12:15:57;;;;;;;;;;;;;;;;;;5014640;28;20022;-74
2021/08/09 12:18:23;;;;;;;3.63;2.10;;;;;;;;;;5016507;28;19914;-71
2021/08/09 12:21:06;;;;;;;5.30;2.55;;;;;;;;;;5002139;28;20034;-73
2021/08/09 12:23:32;;;;;;;2.92;2.55;;;;;;;;;;5017375;28;20030;-71
2021/08/09 12:25:58;;;;;;;3.88;2.10;;;;;;;;;;5017647;28;20364;-73
2021/08/09 12:28:30;;;;;;;3.85;2.40;;;;;;;;;;5002803;28;20062;-76
2021/08/09 12:30:56;;;;;;;2.58;1.90;;;;;;;;;;4997172;28;20049;-72
2021/08/09 12:33:22;;;;;;;2.30;2.03;;;;;;;;;;4994137;28;20041;-75
2021/08/09 12:35:48;;;;;;;2.70;2.20;;;;;;;;;;5015770;28;20026;-73
2021/08/09 12:38:16;;;;;;;3.20;2.22;;;;;;;;;;5015332;28;20036;-72
2021/08/09 12:40:53;;;;;;;4.07;2.30;;;;;;;;;;5010751;28;20030;-72
2021/08/09 12:43:20;;;;;;;2.50;2.00;;;;;;;;;;5012173;28;20117;-73
2021/08/09 12:45:47;;;;;;;2.95;2.42;;;;;;;;;;4995914;28;20098;-73
2021/08/09 12:48:13;;;;;;;3.22;2.22;;;;;;;;;;5012120;28;20133;-74
2021/08/09 12:50:40;;;;;;;2.83;2.55;;;;;;;;;;5008769;28;20514;-71
2021/08/09 12:53:07;;;;;;;2.10;1.90;;;;;;;;;;5008917;28;20064;-72
2021/08/09 12:55:33;;;;;;;2.55;1.80;;;;;;;;;;5010135;28;20026;-75
2021/08/09 12:58:00;;;;;;;4.88;1.80;;;;;;;;;;5006886;28;20025;-75
2021/08/09 13:00:26;;;;;;;3.20;2.10;;;;;;;;;;5010599;28;20129;-71
2021/08/09 13:02:53;;;;;;;1.98;1.77;;;;;;;;;;5005196;28;20037;-70
2021/08/09 13:05:19;;;;;;;1.98;1.70;;;;;;;;;;5015640;28;20023;-73
2021/08/09 13:07:46;;;;;;;1.92;1.73;;;;;;;;;;5014460;28;20065;-72
2021/08/09 13:10:12;;;;;;;3.10;1.90;;;;;;;;;;5018327;28;20480;-69
2021/08/09 13:12:38;;;;;;;1.92;1.73;;;;;;;;;;5014663;28;20204;-71
2021/08/09 13:15:04;;;;;;;2.00;1.80;;;;;;;;;;5015666;28;20029;-72
2021/08/09 13:17:31;;;;;;;2.47;1.92;;;;;;;;;;5008573;28;20066;-73
2021/08/09 13:19:57;;;;;;;1.95;1.80;;;;;;;;;;5011158;28;20038;-72
2021/08/09 13:22:26;;;;;;;2.58;2.20;;;;;;;;;;5015138;28;20044;-73
2021/08/09 13:24:52;;;;;;;2.72;2.13;;;;;;;;;;5015580;28;20673;-71
2021/08/09 13:27:18;;;;;;;3.25;2.13;;;;;;;;;;5017621;28;20022;-73
2021/08/09 13:29:44;;;;;;;2.53;2.10;;;;;;;;;;5017148;28;20030;-73
2021/08/09 13:32:10;;;;;;;3.88;2.25;;;;;;;;;;5015414;28;20034;-69
2021/08/09 13:34:36;;;;;;;2.33;2.13;;;;;;;;;;5017566;28;20042;-70
2021/08/09 13:37:03;;;;;;;3.75;2.15;;;;;;;;;;5019665;28;20083;-70
2021/08/09 13:39:29;;;;;;;2.60;2.20;;;;;;;;;;5016087;28;20054;-73
2021/08/09 13:41:55;;;;;;;2.83;2.38;;;;;;;;;;5019021;28;20021;-71
2021/08/09 13:44:21;;;;;;;2.38;2.10;;;;;;;;;;5016705;28;20033;-73
2021/08/09 13:46:48;;;;;;;3.00;2.35;;;;;;;;;;5001360;28;20034;-74
2021/08/09 13:49:14;;;;;;;3.15;2.40;;;;;;;;;;5008186;28;20036;-73
2021/08/09 13:51:40;;;;;;;2.95;2.20;;;;;;;;;;5013020;28;20042;-70
2021/08/09 13:54:06;;;;;;;3.38;2.50;;;;;;;;;;4998425;28;20038;-73
2021/08/09 13:56:32;;;;;;;2.65;2.25;;;;;;;;;;5016510;28;20109;-72
2021/08/09 13:58:58;;;;;;;2.40;2.05;;;;;;;;;;5002278;28;20033;-72
2021/08/09 14:01:24;;;;;;;3.05;2.10;;;;;;;;;;5006838;28;20044;-74
2021/08/09 14:03:51;;;;;;;2.85;2.05;;;;;;;;;;5012739;28;20045;-73
2021/08/09 14:06:17;;;;;;;3.42;2.47;;;;;;;;;;5006931;28;20030;-73
2021/08/09 14:08:43;;;;;;;3.63;2.20;;;;;;;;;;5010103;28;20033;-71
2021/08/09 14:11:09;;;;;;;2.92;2.17;;;;;;;;;;4995555;28;20036;-74
2021/08/09 14:13:35;;;;;;;2.30;2.08;;;;;;;;;;5007070;28;20020;-72
2021/08/09 14:16:03;;;;;;;3.70;2.00;;;;;;;;;;5011186;28;20022;-73
2021/08/09 14:18:29;;;;;;;3.40;2.50;;;;;;;;;;5014614;28;20052;-72
2021/08/09 14:20:55;;;;;;;2.42;2.10;;;;;;;;;;5015009;28;20030;-65
2021/08/09 14:23:21;;;;;;;3.63;2.20;;;;;;;;;;4995281;28;20119;-65
2021/08/09 14:25:47;;;;;;;2.30;2.10;;;;;;;;;;5000179;28;20023;-74
2021/08/09 14:28:13;;;;;;;4.22;2.17;;;;;;;;;;5016022;28;20028;-70
2021/08/09 14:30:39;;;;;;;2.20;2.00;;;;;;;;;;5015420;28;20034;-72
2021/08/09 14:33:05;;;;;;;2.50;2.10;;;;;;;;;;5020300;28;20053;-71
2021/08/09 14:35:31;;;;;;;4.15;2.75;;;;;;;;;;5011396;28;20484;-75
2021/08/09 14:37:58;;;;;;;5.97;2.42;;;;;;;;;;5014866;28;20022;-72
2021/08/09 14:40:24;;;;;;;3.17;2.15;;;;;;;;;;5012445;28;20034;-72
2021/08/09 14:42:50;;;;;;;2.75;2.05;;;;;;;;;;5010533;28;20099;-71
2021/08/09 14:45:16;;;;;;;3.83;2.17;;;;;;;;;;5010233;28;20435;-69
2021/08/09 14:47:42;;;;;;;3.42;2.35;;;;;;;;;;5009658;28;20034;-70
2021/08/09 14:50:09;;;;;;;3.15;2.40;;;;;;;;;;5009198;28;20408;-71